Time;durP1;ratioP1;P1;durP2;ratioP2;P2;SDS_P1;SDS_P2;PMS_P1;PMS_P2;Temp;Humidity;BMP_temperature;BMP_pressure;BME280_temperature;BME280_humidity;BME280_pressure;Samples;Min_cycle;Max_cycle;Signal;HPM_P1;HPM_P2
2022/07/20 00:01:47;;;;;;;3.00;1.95;;;;;;;;;;5115770;28;20113;-78
2022/07/20 00:04:13;;;;;;;1.92;1.50;;;;;;;;;;5115853;28;20122;-77
2022/07/20 00:06:39;;;;;;;2.92;1.33;;;;;;;;;;5097119;28;20028;-76
2022/07/20 00:11:50;;;;;;;3.70;1.75;;;;;;;;;;5115762;28;20488;-78
2022/07/20 00:14:16;;;;;;;5.68;4.03;;;;;;;;;;5115828;28;20030;-79
2022/07/20 00:16:42;;;;;;;6.03;4.57;;;;;;;;;;5097132;28;20028;-77
2022/07/20 00:19:09;;;;;;;2.10;1.90;;;;;;;;;;5115663;28;20061;-78
2022/07/20 00:21:36;;;;;;;1.80;1.40;;;;;;;;;;5115290;28;20026;-79
2022/07/20 00:24:02;;;;;;;3.03;2.03;;;;;;;;;;5115471;28;20057;-78
2022/07/20 00:26:28;;;;;;;3.03;1.50;;;;;;;;;;5115382;28;20106;-77
2022/07/20 00:28:54;;;;;;;2.20;1.67;;;;;;;;;;5115274;28;20031;-78
2022/07/20 00:31:21;;;;;;;2.78;2.17;;;;;;;;;;5115273;28;20448;-78
2022/07/20 00:33:48;;;;;;;5.25;1.67;;;;;;;;;;5115108;28;20031;-77
2022/07/20 00:36:14;;;;;;;1.70;1.45;;;;;;;;;;5115113;28;20020;-79
2022/07/20 00:38:40;;;;;;;1.85;1.63;;;;;;;;;;5114888;28;20097;-78
2022/07/20 00:41:06;;;;;;;3.08;1.45;;;;;;;;;;5115232;28;20039;-80
2022/07/20 00:43:51;;;;;;;3.63;1.83;;;;;;;;;;5114945;28;20070;-77
2022/07/20 00:46:17;;;;;;;3.00;1.50;;;;;;;;;;5114861;28;20107;-79
2022/07/20 00:48:46;;;;;;;2.67;1.75;;;;;;;;;;5114893;28;20073;-79
2022/07/20 00:51:12;;;;;;;3.55;2.17;;;;;;;;;;5115025;28;20035;-77
2022/07/20 00:53:38;;;;;;;2.40;1.70;;;;;;;;;;5114682;28;20028;-78
2022/07/20 00:56:05;;;;;;;3.10;1.40;;;;;;;;;;5096651;28;20027;-77
2022/07/20 00:58:31;;;;;;;2.65;1.70;;;;;;;;;;5114695;28;20439;-77
2022/07/20 01:00:57;;;;;;;3.17;1.50;;;;;;;;;;5113902;28;20023;-77
2022/07/20 01:03:23;;;;;;;3.58;1.95;;;;;;;;;;5114503;28;20115;-78
2022/07/20 01:05:49;;;;;;;2.70;1.60;;;;;;;;;;5114609;28;20024;-77
2022/07/20 01:08:17;;;;;;;2.47;1.65;;;;;;;;;;5114689;28;20030;-78
2022/07/20 01:10:44;;;;;;;1.85;1.30;;;;;;;;;;5114360;28;20031;-77
2022/07/20 01:13:11;;;;;;;1.98;1.38;;;;;;;;;;5114597;28;20490;-77
2022/07/20 01:15:37;;;;;;;2.47;1.73;;;;;;;;;;5114257;28;20032;-78
2022/07/20 01:18:03;;;;;;;1.75;1.45;;;;;;;;;;5114573;28;20453;-78
2022/07/20 01:20:30;;;;;;;4.10;1.92;;;;;;;;;;5114296;28;20077;-79
2022/07/20 01:22:57;;;;;;;3.50;1.90;;;;;;;;;;5114211;28;20063;-79
2022/07/20 01:25:23;;;;;;;3.67;2.28;;;;;;;;;;5114296;28;20390;-77
2022/07/20 01:27:49;;;;;;;2.15;1.73;;;;;;;;;;5113964;28;20085;-78
2022/07/20 01:30:15;;;;;;;2.88;1.65;;;;;;;;;;5114006;28;20048;-77
2022/07/20 01:32:41;;;;;;;3.03;1.90;;;;;;;;;;5113897;28;20024;-76
2022/07/20 01:35:07;;;;;;;1.83;1.52;;;;;;;;;;5114180;28;20033;-78
2022/07/20 01:37:34;;;;;;;2.40;1.83;;;;;;;;;;5114112;28;20020;-78
2022/07/20 01:40:00;;;;;;;2.75;1.80;;;;;;;;;;5113935;28;20034;-77
2022/07/20 01:42:26;;;;;;;2.90;1.88;;;;;;;;;;5113776;28;20035;-77
2022/07/20 01:44:52;;;;;;;3.33;1.65;;;;;;;;;;5113633;28;20027;-79
2022/07/20 01:47:18;;;;;;;3.58;1.58;;;;;;;;;;5113879;28;20072;-78
2022/07/20 01:49:44;;;;;;;1.70;1.50;;;;;;;;;;5113655;28;20027;-79
2022/07/20 01:52:10;;;;;;;2.53;1.80;;;;;;;;;;5114013;28;20109;-79
2022/07/20 01:54:39;;;;;;;4.47;1.60;;;;;;;;;;5113823;28;20036;-79
2022/07/20 01:57:05;;;;;;;2.25;1.73;;;;;;;;;;5113637;28;20032;-77
2022/07/20 01:59:31;;;;;;;2.92;2.00;;;;;;;;;;5113679;28;20069;-79
2022/07/20 02:01:57;;;;;;;2.78;1.73;;;;;;;;;;5113543;28;20490;-79
2022/07/20 02:04:23;;;;;;;1.73;1.48;;;;;;;;;;5113638;28;20042;-78
2022/07/20 02:06:49;;;;;;;1.65;1.40;;;;;;;;;;5113315;28;20122;-81
2022/07/20 02:09:15;;;;;;;3.30;1.67;;;;;;;;;;5113558;28;20024;-80
2022/07/20 02:11:41;;;;;;;2.35;1.90;;;;;;;;;;5113416;28;20110;-79
2022/07/20 02:14:07;;;;;;;3.60;1.80;;;;;;;;;;5113326;28;20509;-79
2022/07/20 02:16:33;;;;;;;2.30;1.55;;;;;;;;;;5113434;28;20019;-78
2022/07/20 02:19:03;;;;;;;2.35;1.58;;;;;;;;;;5113095;28;20032;-78
2022/07/20 02:21:29;;;;;;;2.83;1.80;;;;;;;;;;5113393;28;20032;-80
2022/07/20 02:23:56;;;;;;;1.95;1.27;;;;;;;;;;5112803;28;20080;-77
2022/07/20 02:26:22;;;;;;;1.92;1.50;;;;;;;;;;5094861;28;20047;-80
2022/07/20 02:28:48;;;;;;;4.25;2.13;;;;;;;;;;5113041;28;20429;-76
2022/07/20 02:31:14;;;;;;;3.65;1.50;;;;;;;;;;5112864;28;20130;-77
2022/07/20 02:33:41;;;;;;;3.58;1.30;;;;;;;;;;5113117;28;20459;-79
2022/07/20 02:36:07;;;;;;;3.10;1.70;;;;;;;;;;5111225;28;20024;-78
2022/07/20 02:38:33;;;;;;;2.88;2.00;;;;;;;;;;5092105;28;20103;-79
2022/07/20 02:41:00;;;;;;;2.75;1.75;;;;;;;;;;5092323;28;20081;-79
2022/07/20 02:43:26;;;;;;;2.75;1.70;;;;;;;;;;5092528;28;20082;-76
2022/07/20 02:45:52;;;;;;;6.28;5.68;;;;;;;;;;5092386;28;20099;-77
2022/07/20 02:48:18;;;;;;;4.05;3.47;;;;;;;;;;5092372;28;20089;-78
2022/07/20 02:50:44;;;;;;;8.27;5.63;;;;;;;;;;5091184;28;20483;-78
2022/07/20 02:53:11;;;;;;;3.13;2.00;;;;;;;;;;5092233;28;20028;-78
2022/07/20 02:55:37;;;;;;;5.15;2.75;;;;;;;;;;5092445;28;20025;-77
2022/07/20 02:58:04;;;;;;;3.13;2.00;;;;;;;;;;5092161;28;20032;-76
2022/07/20 03:00:30;;;;;;;2.30;1.60;;;;;;;;;;5092373;28;20028;-76
2022/07/20 03:02:56;;;;;;;3.25;1.88;;;;;;;;;;5092197;28;20455;-78
2022/07/20 03:05:22;;;;;;;3.60;1.83;;;;;;;;;;5092356;28;20024;-79
2022/07/20 03:07:49;;;;;;;3.00;1.60;;;;;;;;;;5092390;28;20456;-78
2022/07/20 03:10:17;;;;;;;4.25;1.92;;;;;;;;;;5091932;28;20024;-79
2022/07/20 03:12:43;;;;;;;3.22;2.08;;;;;;;;;;5095966;28;20027;-77
2022/07/20 03:15:10;;;;;;;4.10;2.33;;;;;;;;;;5111407;28;20402;-77
2022/07/20 03:17:55;;;;;;;3.58;1.95;;;;;;;;;;5111754;28;20024;-78
2022/07/20 03:20:22;;;;;;;4.82;2.10;;;;;;;;;;5109036;28;20027;-79
2022/07/20 03:22:49;;;;;;;4.35;2.35;;;;;;;;;;5111266;28;20026;-78
2022/07/20 03:25:15;;;;;;;5.15;2.10;;;;;;;;;;5115718;28;20019;-79
2022/07/20 03:27:41;;;;;;;3.33;2.10;;;;;;;;;;5115909;28;20027;-78
2022/07/20 03:30:08;;;;;;;3.70;2.03;;;;;;;;;;5115402;28;20067;-79
2022/07/20 03:32:34;;;;;;;2.35;1.92;;;;;;;;;;5115948;28;20046;-79
2022/07/20 03:35:00;;;;;;;5.55;2.47;;;;;;;;;;5116081;28;20073;-77
2022/07/20 03:37:26;;;;;;;7.45;2.38;;;;;;;;;;5116463;28;20028;-78
2022/07/20 03:39:53;;;;;;;5.20;2.25;;;;;;;;;;5116223;28;20019;-77
2022/07/20 03:42:19;;;;;;;5.30;2.38;;;;;;;;;;5116442;28;20027;-80
2022/07/20 03:44:45;;;;;;;3.42;2.33;;;;;;;;;;5116277;28;20474;-79
2022/07/20 03:47:11;;;;;;;2.80;2.38;;;;;;;;;;5115926;28;20032;-77
2022/07/20 03:49:37;;;;;;;3.13;2.28;;;;;;;;;;5116186;28;20081;-78
2022/07/20 03:52:03;;;;;;;5.55;2.80;;;;;;;;;;5115629;28;20023;-77
2022/07/20 03:54:29;;;;;;;4.45;3.50;;;;;;;;;;5116198;28;20106;-78
2022/07/20 03:56:56;;;;;;;8.93;3.58;;;;;;;;;;5115980;28;20576;-79
2022/07/20 03:59:22;;;;;;;3.30;2.33;;;;;;;;;;5115598;28;20027;-78
2022/07/20 04:01:48;;;;;;;3.42;2.28;;;;;;;;;;5116097;28;20063;-77
2022/07/20 04:04:14;;;;;;;4.82;2.50;;;;;;;;;;5115432;28;20114;-80
2022/07/20 04:06:40;;;;;;;4.55;2.78;;;;;;;;;;5115818;28;20106;-79
2022/07/20 04:09:11;;;;;;;4.53;2.75;;;;;;;;;;5115408;28;20378;-79
2022/07/20 04:11:37;;;;;;;3.40;2.15;;;;;;;;;;5115972;28;20378;-77
2022/07/20 04:14:03;;;;;;;3.05;2.55;;;;;;;;;;5115560;28;20050;-77
2022/07/20 04:16:29;;;;;;;3.45;1.88;;;;;;;;;;5115774;28;20099;-79
2022/07/20 04:18:55;;;;;;;3.88;2.42;;;;;;;;;;5114256;28;20024;-79
2022/07/20 04:21:21;;;;;;;5.28;2.78;;;;;;;;;;5114497;28;20518;-77
2022/07/20 04:23:47;;;;;;;4.15;2.85;;;;;;;;;;5114310;28;20040;-77
2022/07/20 04:26:13;;;;;;;4.97;3.00;;;;;;;;;;5114141;28;20027;-78
2022/07/20 04:28:39;;;;;;;4.15;2.90;;;;;;;;;;5115140;28;20519;-77
2022/07/20 04:31:08;;;;;;;5.65;3.25;;;;;;;;;;5114952;28;20059;-77
2022/07/20 04:33:34;;;;;;;4.47;2.63;;;;;;;;;;5115009;28;20036;-78
2022/07/20 04:36:00;;;;;;;5.10;2.72;;;;;;;;;;5113860;28;20368;-79
2022/07/20 04:38:27;;;;;;;2.88;2.00;;;;;;;;;;5114770;28;20028;-78
2022/07/20 04:40:53;;;;;;;3.25;2.65;;;;;;;;;;5115197;28;20034;-78
2022/07/20 04:43:19;;;;;;;3.67;2.58;;;;;;;;;;5114607;28;20032;-79
2022/07/20 04:45:45;;;;;;;6.05;3.25;;;;;;;;;;5114894;28;20054;-77
2022/07/20 04:48:11;;;;;;;6.35;3.17;;;;;;;;;;5114590;28;20077;-79
2022/07/20 04:50:37;;;;;;;4.22;2.67;;;;;;;;;;5114840;28;20055;-78
2022/07/20 04:53:04;;;;;;;5.60;2.50;;;;;;;;;;5114744;28;20030;-78
2022/07/20 04:55:30;;;;;;;3.70;2.38;;;;;;;;;;5114673;28;20039;-78
2022/07/20 04:57:56;;;;;;;4.28;2.40;;;;;;;;;;5114705;28;20035;-79
2022/07/20 05:00:22;;;;;;;3.95;2.60;;;;;;;;;;5114388;28;20038;-79
2022/07/20 05:02:48;;;;;;;3.28;2.20;;;;;;;;;;5114697;28;20386;-76
2022/07/20 05:05:14;;;;;;;4.03;2.15;;;;;;;;;;5114707;28;20034;-80
2022/07/20 05:07:40;;;;;;;4.90;2.38;;;;;;;;;;5114255;28;20098;-81
2022/07/20 05:10:06;;;;;;;4.38;2.33;;;;;;;;;;5114440;28;20104;-79
2022/07/20 05:12:33;;;;;;;4.13;2.03;;;;;;;;;;5113141;28;20031;-78
2022/07/20 05:14:59;;;;;;;2.60;2.00;;;;;;;;;;5118987;27;20485;-80
2022/07/20 05:17:25;;;;;;;3.58;2.10;;;;;;;;;;5114309;28;20019;-79
2022/07/20 05:19:51;;;;;;;3.40;1.90;;;;;;;;;;5114147;28;20465;-76
2022/07/20 05:22:17;;;;;;;2.83;1.85;;;;;;;;;;5113870;28;20031;-79
2022/07/20 05:24:43;;;;;;;5.03;2.00;;;;;;;;;;5095634;28;20050;-78
2022/07/20 05:27:09;;;;;;;4.32;1.83;;;;;;;;;;5113978;28;20024;-79
2022/07/20 05:29:38;;;;;;;2.38;1.65;;;;;;;;;;5113493;28;20023;-81
2022/07/20 05:32:07;;;;;;;2.78;1.90;;;;;;;;;;5113769;28;20397;-79
2022/07/20 05:34:33;;;;;;;9.00;5.05;;;;;;;;;;5113549;28;20085;-80
2022/07/20 05:36:59;;;;;;;3.90;2.88;;;;;;;;;;5100572;28;20086;-79
2022/07/20 05:39:25;;;;;;;3.28;2.00;;;;;;;;;;5098179;28;20028;-79
2022/07/20 05:41:51;;;;;;;4.18;2.17;;;;;;;;;;5103524;28;20032;-80
2022/07/20 05:44:18;;;;;;;5.40;3.13;;;;;;;;;;5113780;28;20032;-77
2022/07/20 05:46:44;;;;;;;8.80;2.72;;;;;;;;;;5102401;28;20043;-76
2022/07/20 05:49:10;;;;;;;4.95;2.40;;;;;;;;;;5105075;28;20100;-77
2022/07/20 05:51:36;;;;;;;3.72;2.58;;;;;;;;;;5111029;28;20042;-77
2022/07/20 05:54:02;;;;;;;5.07;2.65;;;;;;;;;;5112888;28;20032;-77
2022/07/20 05:56:28;;;;;;;5.18;2.35;;;;;;;;;;5113417;28;20149;-82
2022/07/20 05:58:54;;;;;;;5.78;2.40;;;;;;;;;;5112629;28;20038;-78
2022/07/20 06:01:20;;;;;;;3.90;1.75;;;;;;;;;;5113310;28;20034;-78
2022/07/20 06:03:46;;;;;;;5.20;2.00;;;;;;;;;;5095047;28;20440;-77
2022/07/20 06:06:13;;;;;;;3.05;1.80;;;;;;;;;;5112743;28;20030;-77
2022/07/20 06:08:39;;;;;;;4.32;1.80;;;;;;;;;;5113110;28;20500;-77
2022/07/20 06:11:05;;;;;;;4.38;1.55;;;;;;;;;;5113096;28;20028;-78
2022/07/20 06:13:31;;;;;;;2.47;1.67;;;;;;;;;;5112410;28;20020;-77
2022/07/20 06:15:57;;;;;;;3.33;1.60;;;;;;;;;;5113236;28;20031;-78
2022/07/20 06:18:24;;;;;;;3.22;1.63;;;;;;;;;;5112953;28;20028;-78
2022/07/20 06:20:50;;;;;;;6.43;3.05;;;;;;;;;;5112605;28;20099;-77
2022/07/20 06:23:16;;;;;;;6.15;4.82;;;;;;;;;;5112132;28;20034;-77
2022/07/20 06:25:42;;;;;;;3.10;2.22;;;;;;;;;;5098852;28;20162;-77
2022/07/20 06:28:08;;;;;;;21.20;17.52;;;;;;;;;;5112432;28;20028;-77
2022/07/20 06:30:34;;;;;;;8.32;6.60;;;;;;;;;;5101630;28;20044;-78
2022/07/20 06:33:00;;;;;;;44.65;19.08;;;;;;;;;;5112793;28;20020;-79
2022/07/20 06:35:28;;;;;;;40.80;19.27;;;;;;;;;;5110192;28;20104;-78
2022/07/20 06:37:54;;;;;;;21.02;10.15;;;;;;;;;;5099254;28;20056;-78
2022/07/20 06:40:20;;;;;;;7.68;3.40;;;;;;;;;;5092126;28;20042;-77
2022/07/20 06:42:46;;;;;;;8.30;3.60;;;;;;;;;;5091860;28;20024;-77
2022/07/20 06:45:13;;;;;;;6.10;3.60;;;;;;;;;;5104788;28;20038;-76
2022/07/20 06:47:39;;;;;;;5.18;2.70;;;;;;;;;;5102073;28;20035;-76
2022/07/20 06:50:05;;;;;;;9.73;8.85;;;;;;;;;;5102389;28;20100;-76
2022/07/20 06:52:32;;;;;;;54.95;30.13;;;;;;;;;;5108631;28;20036;-78
2022/07/20 06:54:58;;;;;;;47.63;22.60;;;;;;;;;;5102453;28;20028;-77
2022/07/20 06:57:24;;;;;;;20.85;9.50;;;;;;;;;;5105032;28;20032;-78
2022/07/20 06:59:51;;;;;;;17.88;9.40;;;;;;;;;;5103724;28;20054;-77
2022/07/20 07:02:17;;;;;;;26.65;12.68;;;;;;;;;;5109069;28;20382;-79
2022/07/20 07:04:43;;;;;;;13.45;6.35;;;;;;;;;;5104579;28;20475;-76
2022/07/20 07:07:09;;;;;;;5.10;2.58;;;;;;;;;;5111808;28;20027;-76
2022/07/20 07:09:35;;;;;;;3.25;1.98;;;;;;;;;;5105270;28;20035;-76
2022/07/20 07:12:01;;;;;;;31.17;15.10;;;;;;;;;;5093678;28;20032;-77
2022/07/20 07:14:27;;;;;;;25.98;13.05;;;;;;;;;;5095182;28;20497;-77
2022/07/20 07:16:54;;;;;;;12.27;6.15;;;;;;;;;;5127537;28;20045;-77
2022/07/20 07:19:20;;;;;;;15.57;11.38;;;;;;;;;;5132496;28;20027;-77
2022/07/20 07:21:47;;;;;;;7.18;4.75;;;;;;;;;;5121600;28;20031;-76
2022/07/20 07:24:13;;;;;;;21.98;16.05;;;;;;;;;;5109173;28;20393;-77
2022/07/20 07:26:39;;;;;;;10.60;5.40;;;;;;;;;;5112072;28;20038;-78
2022/07/20 07:29:05;;;;;;;10.98;5.50;;;;;;;;;;5114489;28;20027;-77
2022/07/20 07:31:31;;;;;;;8.40;4.15;;;;;;;;;;5102093;28;20087;-77
2022/07/20 07:33:57;;;;;;;6.95;4.35;;;;;;;;;;5066825;28;20507;-78
2022/07/20 07:36:23;;;;;;;6.85;3.38;;;;;;;;;;5091855;28;20028;-77
2022/07/20 07:38:50;;;;;;;9.55;5.40;;;;;;;;;;5087835;28;20047;-76
2022/07/20 07:41:16;;;;;;;36.90;15.93;;;;;;;;;;5087069;28;20028;-77
2022/07/20 07:43:42;;;;;;;123.68;48.58;;;;;;;;;;5097991;28;20027;-77
2022/07/20 07:46:08;;;;;;;32.38;12.95;;;;;;;;;;5104232;28;20107;-77
2022/07/20 07:48:34;;;;;;;54.53;22.10;;;;;;;;;;5088457;28;20024;-77
2022/07/20 07:51:01;;;;;;;64.10;25.15;;;;;;;;;;5085941;28;20035;-76
2022/07/20 07:53:27;;;;;;;80.68;31.42;;;;;;;;;;5090821;28;20032;-77
2022/07/20 07:55:53;;;;;;;18.60;8.65;;;;;;;;;;5090970;28;20383;-77
2022/07/20 07:58:19;;;;;;;5.55;3.33;;;;;;;;;;5091032;28;20031;-76
2022/07/20 08:00:46;;;;;;;10.68;5.32;;;;;;;;;;5094251;28;20032;-76
2022/07/20 08:03:12;;;;;;;5.50;4.50;;;;;;;;;;5061911;28;20044;-78
2022/07/20 08:05:38;;;;;;;8.55;4.35;;;;;;;;;;5091052;28;20032;-77
2022/07/20 08:08:22;;;;;;;7.45;3.05;;;;;;;;;;5091311;28;20440;-77
2022/07/20 08:10:48;;;;;;;4.25;2.13;;;;;;;;;;5094507;28;20081;-75
2022/07/20 08:13:19;;;;;;;6.40;2.60;;;;;;;;;;5094575;28;20428;-77
2022/07/20 08:16:13;;;;;;;3.70;1.80;;;;;;;;;;5093639;28;20050;-77
2022/07/20 08:18:39;;;;;;;3.75;1.73;;;;;;;;;;5083422;28;20024;-78
2022/07/20 08:21:05;;;;;;;9.43;2.20;;;;;;;;;;5093932;28;20103;-77
2022/07/20 08:23:32;;;;;;;4.22;2.30;;;;;;;;;;5095008;28;20040;-77
2022/07/20 08:25:58;;;;;;;4.13;3.25;;;;;;;;;;5093695;28;20024;-77
2022/07/20 08:28:25;;;;;;;6.70;5.13;;;;;;;;;;5091399;28;20031;-77
2022/07/20 08:30:53;;;;;;;4.25;3.63;;;;;;;;;;5076601;28;20043;-76
2022/07/20 08:33:20;;;;;;;4.00;2.53;;;;;;;;;;5091650;28;20513;-78
2022/07/20 08:35:46;;;;;;;3.55;3.08;;;;;;;;;;5091242;28;20137;-78
2022/07/20 08:38:12;;;;;;;5.65;2.63;;;;;;;;;;5089591;28;20056;-79
2022/07/20 08:40:40;;;;;;;3.58;2.67;;;;;;;;;;5089180;28;20028;-81
2022/07/20 08:43:06;;;;;;;5.95;2.33;;;;;;;;;;5094168;28;20031;-78
2022/07/20 08:45:34;;;;;;;2.65;1.80;;;;;;;;;;5084948;28;20526;-79
2022/07/20 08:48:02;;;;;;;10.20;2.28;;;;;;;;;;5086090;28;20033;-79
2022/07/20 08:50:29;;;;;;;3.17;2.15;;;;;;;;;;5094082;28;20475;-80
2022/07/20 08:52:56;;;;;;;3.20;2.30;;;;;;;;;;5089190;28;20032;-79
2022/07/20 08:55:27;;;;;;;2.72;1.90;;;;;;;;;;5074612;28;20707;-79
2022/07/20 08:57:53;;;;;;;3.63;1.88;;;;;;;;;;5094209;28;20119;-79
2022/07/20 09:00:20;;;;;;;2.38;1.40;;;;;;;;;;5094004;28;20032;-80
2022/07/20 09:02:54;;;;;;;5.38;3.40;;;;;;;;;;5069405;28;20035;-80
2022/07/20 09:05:20;;;;;;;;;;;;;;;;;;5087892;28;20032;-79
2022/07/20 09:07:47;;;;;;;5.47;2.85;;;;;;;;;;5092518;28;20018;-79
2022/07/20 09:10:21;;;;;;;4.13;2.20;;;;;;;;;;5085482;28;20036;-82
2022/07/20 09:12:51;;;;;;;3.40;1.70;;;;;;;;;;5091370;28;20043;-77
2022/07/20 09:15:35;;;;;;;3.55;1.90;;;;;;;;;;5089832;28;20114;-79
2022/07/20 09:18:09;;;;;;;2.13;1.92;;;;;;;;;;5093498;28;20024;-79
2022/07/20 09:20:35;;;;;;;;;;;;;;;;;;5086242;28;20035;-80
2022/07/20 09:23:14;;;;;;;2.10;1.70;;;;;;;;;;5091942;28;19911;-81
2022/07/20 09:25:51;;;;;;;3.85;1.50;;;;;;;;;;5064136;28;20025;-80
2022/07/20 09:28:18;;;;;;;3.47;1.70;;;;;;;;;;5073194;28;20056;-79
2022/07/20 09:30:51;;;;;;;8.45;3.45;;;;;;;;;;5074921;28;20040;-78
2022/07/20 09:33:24;;;;;;;2.33;1.63;;;;;;;;;;5113247;28;20015;-78
2022/07/20 09:35:50;;;;;;;2.45;1.45;;;;;;;;;;5114008;28;20028;-78
2022/07/20 09:38:16;;;;;;;3.75;1.38;;;;;;;;;;5113468;28;20084;-80
2022/07/20 09:40:43;;;;;;;3.63;2.95;;;;;;;;;;5095507;28;20036;-80
2022/07/20 09:43:26;;;;;;;4.60;2.65;;;;;;;;;;5106261;28;20394;-78
2022/07/20 09:45:54;;;;;;;3.53;3.05;;;;;;;;;;5103415;28;20040;-79
2022/07/20 09:48:23;;;;;;;11.75;6.55;;;;;;;;;;5100411;28;20030;-81
2022/07/20 09:50:49;;;;;;;11.55;4.60;;;;;;;;;;5102829;28;20439;-80
2022/07/20 09:53:16;;;;;;;9.43;5.10;;;;;;;;;;5109174;28;20034;-77
2022/07/20 09:55:43;;;;;;;25.77;12.35;;;;;;;;;;5107394;28;20042;-79
2022/07/20 09:58:10;;;;;;;9.27;5.00;;;;;;;;;;5112897;28;20015;-78
2022/07/20 10:00:37;;;;;;;24.25;10.77;;;;;;;;;;5112602;28;20035;-79
2022/07/20 10:03:04;;;;;;;16.27;7.07;;;;;;;;;;5112894;28;20031;-77
2022/07/20 10:05:36;;;;;;;6.35;4.00;;;;;;;;;;5113150;28;20079;-78
2022/07/20 10:08:04;;;;;;;6.15;3.38;;;;;;;;;;5110888;28;20209;-79
2022/07/20 10:10:30;;;;;;;8.32;5.13;;;;;;;;;;5112279;28;20034;-76
2022/07/20 10:12:57;;;;;;;7.03;3.00;;;;;;;;;;5100397;28;20034;-77
2022/07/20 10:15:26;;;;;;;2.80;1.63;;;;;;;;;;5109827;28;20042;-78
2022/07/20 10:17:53;;;;;;;2.92;1.20;;;;;;;;;;5113120;28;20055;-78
2022/07/20 10:20:37;;;;;;;4.85;2.53;;;;;;;;;;5109632;28;20034;-78
2022/07/20 10:23:16;;;;;;;3.80;2.20;;;;;;;;;;5112872;28;20027;-78
2022/07/20 10:25:45;;;;;;;3.45;1.63;;;;;;;;;;5112032;28;20513;-81
2022/07/20 10:28:32;;;;;;;1.98;1.33;;;;;;;;;;5094143;28;20423;-79
2022/07/20 10:31:01;;;;;;;4.18;1.55;;;;;;;;;;5093790;28;20402;-78
2022/07/20 10:33:27;;;;;;;6.10;1.90;;;;;;;;;;5112291;28;20030;-77
2022/07/20 10:36:41;;;;;;;3.25;2.00;;;;;;;;;;5112657;28;20024;-79
2022/07/20 10:38:43;;;;;;;3.35;1.60;;;;;;;;;;5107550;28;20028;-78
2022/07/20 10:44:21;;;;;;;8.38;7.60;;;;;;;;;;5100076;28;20121;-78
2022/07/20 10:46:48;;;;;;;4.32;2.95;;;;;;;;;;5092735;28;20641;-78
2022/07/20 10:49:14;;;;;;;4.82;1.50;;;;;;;;;;5112639;28;20497;-78
2022/07/20 10:51:41;;;;;;;1.75;1.00;;;;;;;;;;5112317;28;20491;-78
2022/07/20 10:54:26;;;;;;;3.60;2.30;;;;;;;;;;5111834;28;20035;-78
2022/07/20 10:56:53;;;;;;;2.45;1.15;;;;;;;;;;5112418;28;20038;-79
2022/07/20 10:59:19;;;;;;;1.92;1.23;;;;;;;;;;5094387;28;20385;-79
2022/07/20 11:02:04;;;;;;;6.18;1.77;;;;;;;;;;5090954;28;20070;-81
2022/07/20 11:04:30;;;;;;;2.58;1.40;;;;;;;;;;5093777;28;20092;-79
2022/07/20 11:06:56;;;;;;;2.80;1.20;;;;;;;;;;5091343;28;20119;-79
2022/07/20 11:09:30;;;;;;;3.65;1.20;;;;;;;;;;5125870;28;20030;-78
2022/07/20 11:11:56;;;;;;;2.08;1.38;;;;;;;;;;5112009;28;20505;-78
2022/07/20 11:14:22;;;;;;;3.00;1.10;;;;;;;;;;5120922;28;20042;-77
2022/07/20 11:16:54;;;;;;;22.75;10.32;;;;;;;;;;5111364;28;20023;-78
2022/07/20 11:19:20;;;;;;;14.57;6.68;;;;;;;;;;5106398;28;20508;-78
2022/07/20 11:21:47;;;;;;;23.05;10.75;;;;;;;;;;5111487;28;20031;-78
2022/07/20 11:24:31;;;;;;;20.27;10.13;;;;;;;;;;5116669;28;20544;-78
2022/07/20 11:26:58;;;;;;;4.75;2.70;;;;;;;;;;5091648;28;20477;-79
2022/07/20 11:29:24;;;;;;;3.67;2.45;;;;;;;;;;5119227;28;20039;-78
2022/07/20 11:31:50;;;;;;;10.70;5.78;;;;;;;;;;5103493;28;20067;-80
2022/07/20 11:34:17;;;;;;;6.18;2.60;;;;;;;;;;5091933;28;20063;-79
2022/07/20 11:36:43;;;;;;;7.13;3.47;;;;;;;;;;5090681;28;20391;-80
2022/07/20 11:39:12;;;;;;;5.25;2.55;;;;;;;;;;5088985;28;20040;-79
2022/07/20 11:41:58;;;;;;;4.03;1.75;;;;;;;;;;5088591;28;20028;-79
2022/07/20 11:44:27;;;;;;;3.50;1.55;;;;;;;;;;5091997;28;20035;-78
2022/07/20 11:46:54;;;;;;;3.53;1.70;;;;;;;;;;5094689;28;20101;-77
2022/07/20 11:49:21;;;;;;;2.92;1.35;;;;;;;;;;5095108;28;20111;-79
2022/07/20 11:51:57;;;;;;;3.80;1.33;;;;;;;;;;5094779;28;20032;-78
2022/07/20 11:54:26;;;;;;;51.67;47.08;;;;;;;;;;5091017;28;20111;-77
2022/07/20 11:56:53;;;;;;;4.57;3.00;;;;;;;;;;5102369;28;20381;-77
2022/07/20 11:59:20;;;;;;;23.05;3.10;;;;;;;;;;5100972;28;20035;-76
2022/07/20 12:01:48;;;;;;;5.43;3.40;;;;;;;;;;5099953;28;20032;-77
2022/07/20 12:04:17;;;;;;;2.47;1.60;;;;;;;;;;5094974;28;20036;-81
2022/07/20 12:06:43;;;;;;;3.28;1.10;;;;;;;;;;5091468;28;20077;-77
2022/07/20 12:09:11;;;;;;;2.05;1.42;;;;;;;;;;5093899;28;20036;-78
2022/07/20 12:11:56;;;;;;;2.67;1.10;;;;;;;;;;5092436;28;20073;-80
2022/07/20 12:14:30;;;;;;;1.73;1.10;;;;;;;;;;5094383;28;20180;-78
2022/07/20 12:16:57;;;;;;;2.58;1.02;;;;;;;;;;5094964;28;20162;-79
2022/07/20 12:19:24;;;;;;;3.13;1.05;;;;;;;;;;5074103;28;20102;-76
2022/07/20 12:21:54;;;;;;;1.95;1.38;;;;;;;;;;5081473;28;20063;-76
2022/07/20 12:24:20;;;;;;;16.05;14.70;;;;;;;;;;5075618;28;20039;-77
2022/07/20 12:26:47;;;;;;;12.73;11.70;;;;;;;;;;5076090;28;20502;-77
2022/07/20 12:29:25;;;;;;;2.42;1.30;;;;;;;;;;5067290;28;20127;-76
2022/07/20 12:32:10;;;;;;;2.10;1.30;;;;;;;;;;5112081;28;20066;-79
2022/07/20 12:34:55;;;;;;;6.88;1.40;;;;;;;;;;5111076;28;20065;-79
2022/07/20 12:37:21;;;;;;;1.98;1.10;;;;;;;;;;5111922;28;20020;-78
2022/07/20 12:39:53;;;;;;;2.25;1.23;;;;;;;;;;5113861;28;20428;-78
2022/07/20 12:42:21;;;;;;;1.58;1.17;;;;;;;;;;5110881;28;20022;-77
2022/07/20 12:44:49;;;;;;;6.10;2.53;;;;;;;;;;5112327;28;20084;-76
2022/07/20 12:47:16;;;;;;;7.93;3.25;;;;;;;;;;5106186;28;20036;-76
2022/07/20 12:49:43;;;;;;;6.18;2.53;;;;;;;;;;5113667;28;20032;-76
2022/07/20 12:52:10;;;;;;;11.30;4.90;;;;;;;;;;5112029;28;20088;-76
2022/07/20 12:54:37;;;;;;;6.47;2.72;;;;;;;;;;5114559;28;20032;-76
2022/07/20 12:57:03;;;;;;;43.40;16.75;;;;;;;;;;5113157;28;20027;-77
2022/07/20 12:59:29;;;;;;;16.42;7.50;;;;;;;;;;5105565;28;20563;-76
2022/07/20 13:01:55;;;;;;;4.75;2.83;;;;;;;;;;5114470;28;20031;-78
2022/07/20 13:04:22;;;;;;;25.25;11.15;;;;;;;;;;5108279;28;20131;-78
2022/07/20 13:06:50;;;;;;;24.88;11.43;;;;;;;;;;5111352;28;20039;-78
2022/07/20 13:09:17;;;;;;;21.52;4.80;;;;;;;;;;5101329;28;20028;-78
2022/07/20 13:11:44;;;;;;;11.57;5.10;;;;;;;;;;5112826;28;20580;-78
2022/07/20 13:14:11;;;;;;;15.93;7.40;;;;;;;;;;5112907;28;20019;-79
2022/07/20 13:16:37;;;;;;;28.67;12.40;;;;;;;;;;5113555;28;20019;-79
2022/07/20 13:19:04;;;;;;;20.48;10.05;;;;;;;;;;5114292;28;20033;-78
2022/07/20 13:21:30;;;;;;;6.85;3.78;;;;;;;;;;5113309;28;20034;-81
2022/07/20 13:23:56;;;;;;;16.55;8.23;;;;;;;;;;5113861;28;20038;-80
2022/07/20 13:26:23;;;;;;;2.30;1.63;;;;;;;;;;5112601;28;20058;-82
2022/07/20 13:28:51;;;;;;;3.03;1.83;;;;;;;;;;5111150;28;20028;-81
2022/07/20 13:31:17;;;;;;;6.47;1.67;;;;;;;;;;5108036;28;20079;-84
2022/07/20 13:33:43;;;;;;;4.45;1.15;;;;;;;;;;5075644;28;20032;-81
2022/07/20 13:36:10;;;;;;;2.08;1.17;;;;;;;;;;5095775;28;20020;-78
2022/07/20 13:38:36;;;;;;;1.65;1.15;;;;;;;;;;5092269;28;20103;-82
2022/07/20 13:41:02;;;;;;;2.13;1.25;;;;;;;;;;5091645;28;20036;-84
2022/07/20 13:43:29;;;;;;;4.32;2.28;;;;;;;;;;5092165;28;20036;-79
2022/07/20 13:45:55;;;;;;;2.35;1.20;;;;;;;;;;5091113;28;20355;-81
2022/07/20 13:48:21;;;;;;;2.72;1.00;;;;;;;;;;5091650;28;20028;-85
2022/07/20 13:50:48;;;;;;;3.05;1.10;;;;;;;;;;5074304;28;20028;-79
2022/07/20 13:53:15;;;;;;;2.65;1.20;;;;;;;;;;5101456;28;20027;-81
2022/07/20 13:55:41;;;;;;;3.28;1.17;;;;;;;;;;5110052;28;20028;-79
2022/07/20 13:58:07;;;;;;;1.52;1.30;;;;;;;;;;5094708;28;20039;-75
2022/07/20 14:00:33;;;;;;;2.25;1.10;;;;;;;;;;5093304;28;20135;-79
2022/07/20 14:03:00;;;;;;;2.42;0.98;;;;;;;;;;5096919;28;21132;-83
2022/07/20 14:05:26;;;;;;;3.30;1.20;;;;;;;;;;5092228;28;20024;-80
2022/07/20 14:07:53;;;;;;;2.08;1.20;;;;;;;;;;5093073;28;20031;-83
2022/07/20 14:10:19;;;;;;;2.30;1.30;;;;;;;;;;5093190;28;20039;-82
2022/07/20 14:12:45;;;;;;;1.83;1.15;;;;;;;;;;5091185;28;20028;-83
2022/07/20 14:15:11;;;;;;;2.78;2.25;;;;;;;;;;5092705;28;20035;-82
2022/07/20 14:17:39;;;;;;;4.00;3.30;;;;;;;;;;5092928;28;20118;-80
2022/07/20 14:20:06;;;;;;;2.47;1.92;;;;;;;;;;5088685;28;20035;-80
2022/07/20 14:22:32;;;;;;;2.22;1.45;;;;;;;;;;5092654;28;20489;-79
2022/07/20 14:24:59;;;;;;;1.60;1.20;;;;;;;;;;5093995;28;20040;-86
2022/07/20 14:27:25;;;;;;;2.65;2.10;;;;;;;;;;5073652;28;20024;-81
2022/07/20 14:29:52;;;;;;;4.00;1.98;;;;;;;;;;5099880;28;20031;-80
2022/07/20 14:32:18;;;;;;;3.42;1.98;;;;;;;;;;5096855;28;20051;-79
2022/07/20 14:34:44;;;;;;;4.13;2.20;;;;;;;;;;5092440;28;20058;-81
2022/07/20 14:37:11;;;;;;;2.55;1.55;;;;;;;;;;5092672;28;20500;-79
2022/07/20 14:39:37;;;;;;;3.30;1.38;;;;;;;;;;5093437;28;20375;-81
2022/07/20 14:42:04;;;;;;;2.38;1.23;;;;;;;;;;5091606;28;20391;-81
2022/07/20 14:44:31;;;;;;;2.63;0.93;;;;;;;;;;5102872;28;20055;-79
2022/07/20 14:46:57;;;;;;;2.00;1.17;;;;;;;;;;5112682;28;20382;-79
2022/07/20 14:49:23;;;;;;;2.42;1.13;;;;;;;;;;5112565;28;20035;-82